sensor_id;sensor_type;location;lat;lon;timestamp;P1;durP1;ratioP1;P2;durP2;ratioP2
41059;SDS011;26811;53.160;8.202;2023-02-24T00:01:58;6.78;;;2.22;;
41059;SDS011;26811;53.160;8.202;2023-02-24T00:07:00;10.73;;;2.25;;
41059;SDS011;26811;53.160;8.202;2023-02-24T00:12:03;11.65;;;2.67;;
41059;SDS011;26811;53.160;8.202;2023-02-24T00:17:06;16.17;;;2.30;;
41059;SDS011;26811;53.160;8.202;2023-02-24T00:22:07;5.05;;;2.40;;
41059;SDS011;26811;53.160;8.202;2023-02-24T00:27:08;9.07;;;2.08;;
41059;SDS011;26811;53.160;8.202;2023-02-24T00:32:10;17.15;;;2.65;;
41059;SDS011;26811;53.160;8.202;2023-02-24T00:37:12;11.18;;;2.38;;
41059;SDS011;26811;53.160;8.202;2023-02-24T00:42:14;9.35;;;2.15;;
41059;SDS011;26811;53.160;8.202;2023-02-24T00:47:15;11.45;;;2.30;;
41059;SDS011;26811;53.160;8.202;2023-02-24T00:52:17;12.80;;;3.00;;
41059;SDS011;26811;53.160;8.202;2023-02-24T00:57:19;10.73;;;3.03;;
41059;SDS011;26811;53.160;8.202;2023-02-24T01:02:20;14.23;;;2.78;;
41059;SDS011;26811;53.160;8.202;2023-02-24T01:07:20;18.42;;;3.00;;
41059;SDS011;26811;53.160;8.202;2023-02-24T01:12:21;9.07;;;2.30;;
41059;SDS011;26811;53.160;8.202;2023-02-24T01:17:40;10.70;;;2.90;;
41059;SDS011;26811;53.160;8.202;2023-02-24T01:22:42;14.25;;;3.17;;
41059;SDS011;26811;53.160;8.202;2023-02-24T01:27:43;12.43;;;2.93;;
41059;SDS011;26811;53.160;8.202;2023-02-24T01:32:44;8.95;;;2.80;;
41059;SDS011;26811;53.160;8.202;2023-02-24T01:37:45;7.78;;;2.45;;
41059;SDS011;26811;53.160;8.202;2023-02-24T01:42:46;9.00;;;2.83;;
41059;SDS011;26811;53.160;8.202;2023-02-24T01:47:48;12.77;;;2.95;;
41059;SDS011;26811;53.160;8.202;2023-02-24T01:52:50;8.70;;;2.15;;
41059;SDS011;26811;53.160;8.202;2023-02-24T01:57:55;11.25;;;2.30;;
41059;SDS011;26811;53.160;8.202;2023-02-24T02:02:58;6.03;;;2.70;;
41059;SDS011;26811;53.160;8.202;2023-02-24T02:08:03;14.07;;;2.75;;
41059;SDS011;26811;53.160;8.202;2023-02-24T02:13:04;9.00;;;2.20;;
41059;SDS011;26811;53.160;8.202;2023-02-24T02:18:14;9.60;;;2.70;;
41059;SDS011;26811;53.160;8.202;2023-02-24T02:24:06;6.35;;;2.10;;
41059;SDS011;26811;53.160;8.202;2023-02-24T02:29:30;11.30;;;2.90;;
41059;SDS011;26811;53.160;8.202;2023-02-24T02:34:55;9.05;;;2.35;;
41059;SDS011;26811;53.160;8.202;2023-02-24T02:45:43;6.55;;;2.22;;
41059;SDS011;26811;53.160;8.202;2023-02-24T02:51:09;13.13;;;2.35;;
41059;SDS011;26811;53.160;8.202;2023-02-24T02:56:20;10.75;;;2.60;;
41059;SDS011;26811;53.160;8.202;2023-02-24T03:01:30;9.52;;;3.10;;
41059;SDS011;26811;53.160;8.202;2023-02-24T03:06:36;4.18;;;2.47;;
41059;SDS011;26811;53.160;8.202;2023-02-24T03:11:42;10.52;;;2.50;;
41059;SDS011;26811;53.160;8.202;2023-02-24T03:16:47;6.82;;;2.50;;
41059;SDS011;26811;53.160;8.202;2023-02-24T03:21:51;11.13;;;3.10;;
41059;SDS011;26811;53.160;8.202;2023-02-24T03:27:07;6.40;;;2.40;;
41059;SDS011;26811;53.160;8.202;2023-02-24T03:37:25;15.70;;;3.08;;
41059;SDS011;26811;53.160;8.202;2023-02-24T03:42:29;8.63;;;2.40;;
41059;SDS011;26811;53.160;8.202;2023-02-24T03:47:32;9.88;;;2.63;;
41059;SDS011;26811;53.160;8.202;2023-02-24T03:52:36;6.15;;;2.53;;
41059;SDS011;26811;53.160;8.202;2023-02-24T03:57:56;9.13;;;2.45;;
41059;SDS011;26811;53.160;8.202;2023-02-24T04:03:21;9.95;;;2.67;;
41059;SDS011;26811;53.160;8.202;2023-02-24T04:08:27;16.20;;;3.35;;
41059;SDS011;26811;53.160;8.202;2023-02-24T04:18:50;8.80;;;2.75;;
41059;SDS011;26811;53.160;8.202;2023-02-24T04:23:51;14.23;;;2.80;;
41059;SDS011;26811;53.160;8.202;2023-02-24T04:28:53;7.75;;;2.78;;
41059;SDS011;26811;53.160;8.202;2023-02-24T04:33:54;13.30;;;3.30;;
41059;SDS011;26811;53.160;8.202;2023-02-24T04:38:55;8.90;;;2.83;;
41059;SDS011;26811;53.160;8.202;2023-02-24T04:43:55;10.65;;;3.53;;
41059;SDS011;26811;53.160;8.202;2023-02-24T04:48:56;12.25;;;2.60;;
41059;SDS011;26811;53.160;8.202;2023-02-24T04:53:56;10.10;;;3.10;;
41059;SDS011;26811;53.160;8.202;2023-02-24T04:58:57;11.93;;;2.83;;
41059;SDS011;26811;53.160;8.202;2023-02-24T05:03:57;6.38;;;2.80;;
41059;SDS011;26811;53.160;8.202;2023-02-24T05:08:59;11.45;;;2.80;;
41059;SDS011;26811;53.160;8.202;2023-02-24T05:14:00;5.88;;;2.60;;
41059;SDS011;26811;53.160;8.202;2023-02-24T05:19:03;12.52;;;3.10;;
41059;SDS011;26811;53.160;8.202;2023-02-24T05:24:23;14.13;;;3.08;;
41059;SDS011;26811;53.160;8.202;2023-02-24T05:29:25;8.77;;;2.70;;
41059;SDS011;26811;53.160;8.202;2023-02-24T05:34:28;6.23;;;2.70;;
41059;SDS011;26811;53.160;8.202;2023-02-24T05:39:29;8.20;;;2.90;;
41059;SDS011;26811;53.160;8.202;2023-02-24T05:44:30;6.70;;;2.67;;
41059;SDS011;26811;53.160;8.202;2023-02-24T05:49:32;7.35;;;2.42;;
41059;SDS011;26811;53.160;8.202;2023-02-24T05:54:36;8.32;;;2.50;;
41059;SDS011;26811;53.160;8.202;2023-02-24T05:59:38;14.45;;;2.70;;
41059;SDS011;26811;53.160;8.202;2023-02-24T06:04:41;5.68;;;2.47;;
41059;SDS011;26811;53.160;8.202;2023-02-24T06:09:50;13.35;;;2.72;;
41059;SDS011;26811;53.160;8.202;2023-02-24T06:14:56;11.18;;;2.58;;
41059;SDS011;26811;53.160;8.202;2023-02-24T06:19:57;14.63;;;2.50;;
41059;SDS011;26811;53.160;8.202;2023-02-24T06:24:58;6.55;;;2.70;;
41059;SDS011;26811;53.160;8.202;2023-02-24T06:29:59;5.55;;;2.45;;
41059;SDS011;26811;53.160;8.202;2023-02-24T06:34:59;7.43;;;3.20;;
41059;SDS011;26811;53.160;8.202;2023-02-24T06:40:00;9.45;;;3.15;;
41059;SDS011;26811;53.160;8.202;2023-02-24T06:45:01;13.95;;;3.10;;
41059;SDS011;26811;53.160;8.202;2023-02-24T06:50:02;5.75;;;2.60;;
41059;SDS011;26811;53.160;8.202;2023-02-24T06:55:06;8.30;;;2.50;;
41059;SDS011;26811;53.160;8.202;2023-02-24T07:00:24;14.90;;;3.03;;
41059;SDS011;26811;53.160;8.202;2023-02-24T07:05:37;11.60;;;3.00;;
41059;SDS011;26811;53.160;8.202;2023-02-24T07:10:38;13.10;;;3.40;;
41059;SDS011;26811;53.160;8.202;2023-02-24T07:15:38;18.52;;;3.50;;
41059;SDS011;26811;53.160;8.202;2023-02-24T07:20:39;14.05;;;2.90;;
41059;SDS011;26811;53.160;8.202;2023-02-24T07:30:45;17.80;;;3.42;;
41059;SDS011;26811;53.160;8.202;2023-02-24T07:35:49;9.45;;;3.20;;
41059;SDS011;26811;53.160;8.202;2023-02-24T07:40:50;11.10;;;3.53;;
41059;SDS011;26811;53.160;8.202;2023-02-24T07:45:57;17.85;;;3.65;;
41059;SDS011;26811;53.160;8.202;2023-02-24T07:51:08;11.13;;;3.30;;
41059;SDS011;26811;53.160;8.202;2023-02-24T07:56:11;11.47;;;3.90;;
41059;SDS011;26811;53.160;8.202;2023-02-24T08:01:13;11.25;;;3.50;;
41059;SDS011;26811;53.160;8.202;2023-02-24T08:06:22;16.42;;;4.57;;
41059;SDS011;26811;53.160;8.202;2023-02-24T08:11:27;17.88;;;4.68;;
41059;SDS011;26811;53.160;8.202;2023-02-24T08:16:36;11.80;;;3.83;;
41059;SDS011;26811;53.160;8.202;2023-02-24T08:21:39;14.57;;;4.70;;
41059;SDS011;26811;53.160;8.202;2023-02-24T08:26:46;11.52;;;4.30;;
41059;SDS011;26811;53.160;8.202;2023-02-24T08:32:02;12.45;;;5.25;;
41059;SDS011;26811;53.160;8.202;2023-02-24T08:37:04;15.77;;;5.75;;
41059;SDS011;26811;53.160;8.202;2023-02-24T08:42:05;14.25;;;5.10;;
41059;SDS011;26811;53.160;8.202;2023-02-24T08:47:07;14.20;;;5.93;;
41059;SDS011;26811;53.160;8.202;2023-02-24T08:52:12;11.23;;;5.57;;
41059;SDS011;26811;53.160;8.202;2023-02-24T08:57:13;13.65;;;5.50;;
41059;SDS011;26811;53.160;8.202;2023-02-24T09:02:20;20.55;;;6.25;;
41059;SDS011;26811;53.160;8.202;2023-02-24T09:07:28;9.60;;;5.65;;
41059;SDS011;26811;53.160;8.202;2023-02-24T09:12:36;13.65;;;5.85;;
41059;SDS011;26811;53.160;8.202;2023-02-24T09:17:41;16.05;;;6.18;;
41059;SDS011;26811;53.160;8.202;2023-02-24T09:22:48;23.30;;;6.93;;
41059;SDS011;26811;53.160;8.202;2023-02-24T09:28:09;16.58;;;6.70;;
41059;SDS011;26811;53.160;8.202;2023-02-24T09:33:16;18.20;;;6.47;;
41059;SDS011;26811;53.160;8.202;2023-02-24T09:38:27;15.82;;;7.25;;
41059;SDS011;26811;53.160;8.202;2023-02-24T09:43:46;12.68;;;6.97;;
41059;SDS011;26811;53.160;8.202;2023-02-24T09:48:52;17.38;;;6.63;;
41059;SDS011;26811;53.160;8.202;2023-02-24T09:54:04;21.38;;;7.97;;
41059;SDS011;26811;53.160;8.202;2023-02-24T09:59:21;15.73;;;6.57;;
41059;SDS011;26811;53.160;8.202;2023-02-24T10:04:32;23.48;;;7.53;;
41059;SDS011;26811;53.160;8.202;2023-02-24T10:09:40;15.38;;;6.97;;
41059;SDS011;26811;53.160;8.202;2023-02-24T10:15:18;19.20;;;8.05;;
41059;SDS011;26811;53.160;8.202;2023-02-24T10:20:43;16.23;;;7.50;;
41059;SDS011;26811;53.160;8.202;2023-02-24T10:25:45;18.33;;;7.22;;
41059;SDS011;26811;53.160;8.202;2023-02-24T10:31:00;19.17;;;8.32;;
41059;SDS011;26811;53.160;8.202;2023-02-24T10:36:23;17.58;;;7.97;;
41059;SDS011;26811;53.160;8.202;2023-02-24T10:41:44;19.40;;;8.07;;
41059;SDS011;26811;53.160;8.202;2023-02-24T10:46:46;19.40;;;8.20;;
41059;SDS011;26811;53.160;8.202;2023-02-24T10:52:11;16.13;;;9.43;;
41059;SDS011;26811;53.160;8.202;2023-02-24T10:57:32;23.92;;;8.20;;
41059;SDS011;26811;53.160;8.202;2023-02-24T11:02:36;20.25;;;8.77;;
41059;SDS011;26811;53.160;8.202;2023-02-24T11:08:15;23.45;;;9.13;;
41059;SDS011;26811;53.160;8.202;2023-02-24T11:13:46;14.70;;;7.65;;
41059;SDS011;26811;53.160;8.202;2023-02-24T11:19:06;16.30;;;7.82;;
41059;SDS011;26811;53.160;8.202;2023-02-24T11:24:11;14.38;;;7.30;;
41059;SDS011;26811;53.160;8.202;2023-02-24T11:44:47;11.45;;;6.10;;
41059;SDS011;26811;53.160;8.202;2023-02-24T11:49:52;10.02;;;6.47;;
41059;SDS011;26811;53.160;8.202;2023-02-24T11:55:04;12.18;;;6.75;;
41059;SDS011;26811;53.160;8.202;2023-02-24T12:00:31;20.10;;;7.20;;
41059;SDS011;26811;53.160;8.202;2023-02-24T12:05:39;20.27;;;7.60;;
41059;SDS011;26811;53.160;8.202;2023-02-24T12:10:45;17.42;;;7.10;;
41059;SDS011;26811;53.160;8.202;2023-02-24T12:15:52;18.80;;;8.18;;
41059;SDS011;26811;53.160;8.202;2023-02-24T12:21:22;21.40;;;7.47;;
41059;SDS011;26811;53.160;8.202;2023-02-24T12:32:03;20.08;;;7.10;;
41059;SDS011;26811;53.160;8.202;2023-02-24T12:37:21;15.85;;;4.00;;
41059;SDS011;26811;53.160;8.202;2023-02-24T12:54:04;14.77;;;2.97;;
41059;SDS011;26811;53.160;8.202;2023-02-24T12:59:25;15.25;;;3.17;;
41059;SDS011;26811;53.160;8.202;2023-02-24T13:04:49;26.13;;;3.45;;
41059;SDS011;26811;53.160;8.202;2023-02-24T13:15:23;12.55;;;2.42;;
41059;SDS011;26811;53.160;8.202;2023-02-24T13:20:32;16.73;;;2.63;;
41059;SDS011;26811;53.160;8.202;2023-02-24T13:25:35;19.55;;;2.88;;
41059;SDS011;26811;53.160;8.202;2023-02-24T13:30:39;13.63;;;2.45;;
41059;SDS011;26811;53.160;8.202;2023-02-24T13:35:43;22.67;;;3.22;;
41059;SDS011;26811;53.160;8.202;2023-02-24T13:40:48;19.42;;;2.42;;
41059;SDS011;26811;53.160;8.202;2023-02-24T13:45:53;18.35;;;3.05;;
41059;SDS011;26811;53.160;8.202;2023-02-24T14:01:46;21.27;;;3.20;;
41059;SDS011;26811;53.160;8.202;2023-02-24T14:06:53;18.00;;;3.00;;
41059;SDS011;26811;53.160;8.202;2023-02-24T14:11:57;19.67;;;2.45;;
41059;SDS011;26811;53.160;8.202;2023-02-24T14:17:01;15.05;;;2.20;;
41059;SDS011;26811;53.160;8.202;2023-02-24T14:22:01;16.25;;;2.72;;
41059;SDS011;26811;53.160;8.202;2023-02-24T14:27:02;18.08;;;2.47;;
41059;SDS011;26811;53.160;8.202;2023-02-24T14:32:03;12.40;;;1.98;;
41059;SDS011;26811;53.160;8.202;2023-02-24T14:37:05;4.47;;;1.30;;
41059;SDS011;26811;53.160;8.202;2023-02-24T14:47:09;8.15;;;1.50;;
41059;SDS011;26811;53.160;8.202;2023-02-24T14:52:14;4.30;;;1.38;;
41059;SDS011;26811;53.160;8.202;2023-02-24T14:57:27;5.22;;;1.45;;
41059;SDS011;26811;53.160;8.202;2023-02-24T15:02:32;6.40;;;1.40;;
41059;SDS011;26811;53.160;8.202;2023-02-24T15:07:32;4.28;;;1.48;;
41059;SDS011;26811;53.160;8.202;2023-02-24T15:12:35;8.80;;;1.60;;
41059;SDS011;26811;53.160;8.202;2023-02-24T15:17:43;8.88;;;2.13;;
41059;SDS011;26811;53.160;8.202;2023-02-24T15:22:47;3.67;;;1.58;;
41059;SDS011;26811;53.160;8.202;2023-02-24T15:27:53;7.18;;;1.70;;
41059;SDS011;26811;53.160;8.202;2023-02-24T15:33:20;15.17;;;2.00;;
41059;SDS011;26811;53.160;8.202;2023-02-24T15:38:24;12.43;;;2.47;;
41059;SDS011;26811;53.160;8.202;2023-02-24T15:48:45;15.82;;;2.63;;
41059;SDS011;26811;53.160;8.202;2023-02-24T15:53:47;9.63;;;2.45;;
41059;SDS011;26811;53.160;8.202;2023-02-24T15:58:48;18.00;;;3.80;;
41059;SDS011;26811;53.160;8.202;2023-02-24T16:03:48;16.23;;;2.70;;
41059;SDS011;26811;53.160;8.202;2023-02-24T16:08:49;25.75;;;3.13;;
41059;SDS011;26811;53.160;8.202;2023-02-24T16:13:53;16.55;;;2.88;;
41059;SDS011;26811;53.160;8.202;2023-02-24T16:18:56;13.65;;;3.63;;
41059;SDS011;26811;53.160;8.202;2023-02-24T16:23:56;14.23;;;2.45;;
41059;SDS011;26811;53.160;8.202;2023-02-24T16:28:57;14.02;;;2.70;;
41059;SDS011;26811;53.160;8.202;2023-02-24T16:33:58;14.65;;;2.40;;
41059;SDS011;26811;53.160;8.202;2023-02-24T16:38:58;21.38;;;3.20;;
41059;SDS011;26811;53.160;8.202;2023-02-24T16:44:00;26.50;;;3.15;;
41059;SDS011;26811;53.160;8.202;2023-02-24T16:49:00;20.70;;;4.20;;
41059;SDS011;26811;53.160;8.202;2023-02-24T16:54:01;30.75;;;4.30;;
41059;SDS011;26811;53.160;8.202;2023-02-24T16:59:02;28.02;;;3.88;;
41059;SDS011;26811;53.160;8.202;2023-02-24T17:04:04;33.35;;;4.32;;
41059;SDS011;26811;53.160;8.202;2023-02-24T17:09:08;26.38;;;4.10;;
41059;SDS011;26811;53.160;8.202;2023-02-24T17:14:12;30.38;;;3.83;;
41059;SDS011;26811;53.160;8.202;2023-02-24T17:19:17;25.08;;;3.42;;
41059;SDS011;26811;53.160;8.202;2023-02-24T17:24:21;24.88;;;4.50;;
41059;SDS011;26811;53.160;8.202;2023-02-24T17:29:22;23.40;;;4.38;;
41059;SDS011;26811;53.160;8.202;2023-02-24T17:34:23;36.17;;;4.47;;
41059;SDS011;26811;53.160;8.202;2023-02-24T17:39:23;34.47;;;3.88;;
41059;SDS011;26811;53.160;8.202;2023-02-24T17:44:24;35.88;;;4.18;;
41059;SDS011;26811;53.160;8.202;2023-02-24T17:49:24;33.28;;;4.43;;
41059;SDS011;26811;53.160;8.202;2023-02-24T17:54:25;29.90;;;4.63;;
41059;SDS011;26811;53.160;8.202;2023-02-24T17:59:26;38.05;;;5.40;;
41059;SDS011;26811;53.160;8.202;2023-02-24T18:04:27;29.35;;;5.32;;
41059;SDS011;26811;53.160;8.202;2023-02-24T18:09:28;30.83;;;5.03;;
41059;SDS011;26811;53.160;8.202;2023-02-24T18:14:28;27.92;;;4.65;;
41059;SDS011;26811;53.160;8.202;2023-02-24T18:19:29;42.60;;;5.00;;
41059;SDS011;26811;53.160;8.202;2023-02-24T18:24:30;40.88;;;6.05;;
41059;SDS011;26811;53.160;8.202;2023-02-24T18:29:30;23.45;;;5.28;;
41059;SDS011;26811;53.160;8.202;2023-02-24T18:34:31;35.63;;;6.85;;
41059;SDS011;26811;53.160;8.202;2023-02-24T18:39:32;32.33;;;5.40;;
41059;SDS011;26811;53.160;8.202;2023-02-24T18:44:32;33.28;;;5.95;;
41059;SDS011;26811;53.160;8.202;2023-02-24T18:49:33;38.40;;;7.55;;
41059;SDS011;26811;53.160;8.202;2023-02-24T18:54:35;31.95;;;5.38;;
41059;SDS011;26811;53.160;8.202;2023-02-24T18:59:35;48.80;;;8.85;;
41059;SDS011;26811;53.160;8.202;2023-02-24T19:04:36;43.55;;;6.35;;
41059;SDS011;26811;53.160;8.202;2023-02-24T19:09:36;27.40;;;6.07;;
41059;SDS011;26811;53.160;8.202;2023-02-24T19:14:37;38.17;;;7.05;;
41059;SDS011;26811;53.160;8.202;2023-02-24T19:19:37;36.60;;;6.28;;
41059;SDS011;26811;53.160;8.202;2023-02-24T19:24:38;89.10;;;19.20;;
41059;SDS011;26811;53.160;8.202;2023-02-24T19:29:38;44.10;;;7.57;;
41059;SDS011;26811;53.160;8.202;2023-02-24T19:34:39;23.52;;;4.68;;
41059;SDS011;26811;53.160;8.202;2023-02-24T19:39:40;28.05;;;5.28;;
41059;SDS011;26811;53.160;8.202;2023-02-24T19:44:40;29.50;;;5.68;;
41059;SDS011;26811;53.160;8.202;2023-02-24T19:49:41;21.42;;;4.22;;
41059;SDS011;26811;53.160;8.202;2023-02-24T19:54:41;20.45;;;4.00;;
41059;SDS011;26811;53.160;8.202;2023-02-24T19:59:42;24.40;;;4.95;;
41059;SDS011;26811;53.160;8.202;2023-02-24T20:04:43;20.60;;;4.47;;
41059;SDS011;26811;53.160;8.202;2023-02-24T20:09:44;30.60;;;3.67;;
41059;SDS011;26811;53.160;8.202;2023-02-24T20:14:44;26.80;;;5.70;;
41059;SDS011;26811;53.160;8.202;2023-02-24T20:19:45;24.40;;;4.75;;
41059;SDS011;26811;53.160;8.202;2023-02-24T20:24:45;27.80;;;4.15;;
41059;SDS011;26811;53.160;8.202;2023-02-24T20:29:46;30.10;;;4.03;;
41059;SDS011;26811;53.160;8.202;2023-02-24T20:34:47;27.90;;;4.43;;
41059;SDS011;26811;53.160;8.202;2023-02-24T20:39:47;21.75;;;4.07;;
41059;SDS011;26811;53.160;8.202;2023-02-24T20:44:51;24.20;;;4.60;;
41059;SDS011;26811;53.160;8.202;2023-02-24T20:49:52;22.52;;;4.00;;
41059;SDS011;26811;53.160;8.202;2023-02-24T20:54:52;27.85;;;4.28;;
41059;SDS011;26811;53.160;8.202;2023-02-24T20:59:53;37.63;;;4.72;;
41059;SDS011;26811;53.160;8.202;2023-02-24T21:04:58;24.25;;;4.53;;
41059;SDS011;26811;53.160;8.202;2023-02-24T21:09:58;31.40;;;4.22;;
41059;SDS011;26811;53.160;8.202;2023-02-24T21:14:59;33.38;;;4.72;;
41059;SDS011;26811;53.160;8.202;2023-02-24T21:19:59;33.78;;;4.93;;
41059;SDS011;26811;53.160;8.202;2023-02-24T21:25:03;32.78;;;6.63;;
41059;SDS011;26811;53.160;8.202;2023-02-24T21:30:05;30.90;;;4.75;;
41059;SDS011;26811;53.160;8.202;2023-02-24T21:35:07;29.83;;;5.75;;
41059;SDS011;26811;53.160;8.202;2023-02-24T21:40:08;25.25;;;4.95;;
41059;SDS011;26811;53.160;8.202;2023-02-24T21:45:12;44.90;;;5.65;;
41059;SDS011;26811;53.160;8.202;2023-02-24T21:50:23;35.28;;;5.03;;
41059;SDS011;26811;53.160;8.202;2023-02-24T21:55:41;42.38;;;8.20;;
41059;SDS011;26811;53.160;8.202;2023-02-24T22:12:30;38.60;;;7.50;;
41059;SDS011;26811;53.160;8.202;2023-02-24T22:17:30;50.08;;;6.60;;
41059;SDS011;26811;53.160;8.202;2023-02-24T22:34:28;30.08;;;4.25;;
41059;SDS011;26811;53.160;8.202;2023-02-24T22:46:46;20.65;;;2.95;;
41059;SDS011;26811;53.160;8.202;2023-02-24T22:51:47;20.85;;;3.10;;
41059;SDS011;26811;53.160;8.202;2023-02-24T23:14:51;26.88;;;5.05;;
41059;SDS011;26811;53.160;8.202;2023-02-24T23:19:51;18.25;;;3.65;;
41059;SDS011;26811;53.160;8.202;2023-02-24T23:24:53;26.20;;;4.03;;
41059;SDS011;26811;53.160;8.202;2023-02-24T23:29:53;17.20;;;3.38;;
41059;SDS011;26811;53.160;8.202;2023-02-24T23:34:54;14.82;;;3.00;;
41059;SDS011;26811;53.160;8.202;2023-02-24T23:39:55;19.38;;;3.10;;
41059;SDS011;26811;53.160;8.202;2023-02-24T23:44:55;13.85;;;2.97;;
41059;SDS011;26811;53.160;8.202;2023-02-24T23:49:56;12.50;;;2.80;;
41059;SDS011;26811;53.160;8.202;2023-02-24T23:54:56;10.05;;;2.60;;
41059;SDS011;26811;53.160;8.202;2023-02-24T23:59:57;11.23;;;3.70;;
